Time;durP1;ratioP1;P1;durP2;ratioP2;P2;SDS_P1;SDS_P2;PMS_P1;PMS_P2;Temp;Humidity;BMP_temperature;BMP_pressure;BME280_temperature;BME280_humidity;BME280_pressure;Samples;Min_cycle;Max_cycle;Signal;HPM_P1;HPM_P2
2022/08/10 00:01:11;;;;;;;5.70;2.05;;;27.70;99.90;;;;;;4982881;28;20034;-73
2022/08/10 00:03:37;;;;;;;3.42;1.75;;;27.70;99.70;;;;;;4997380;28;20038;-74
2022/08/10 00:06:03;;;;;;;3.17;1.80;;;27.70;99.70;;;;;;4999328;28;20030;-74
2022/08/10 00:08:29;;;;;;;4.57;1.98;;;27.70;99.50;;;;;;4978196;28;20060;-74
2022/08/10 00:10:56;;;;;;;5.13;1.77;;;27.60;99.90;;;;;;4997687;28;20045;-74
2022/08/10 00:13:24;;;;;;;7.07;1.80;;;27.50;99.90;;;;;;4978036;28;22885;-74
2022/08/10 00:15:51;;;;;;;3.03;1.67;;;27.50;99.90;;;;;;4977758;28;20747;-74
2022/08/10 00:18:17;;;;;;;3.90;2.00;;;27.60;99.90;;;;;;4996895;28;20455;-74
2022/08/10 00:20:43;;;;;;;3.50;1.80;;;27.60;99.90;;;;;;5001205;28;20047;-74
2022/08/10 00:23:09;;;;;;;4.97;2.15;;;27.50;99.90;;;;;;5000695;28;20480;-74
2022/08/10 00:25:35;;;;;;;3.10;1.80;;;27.60;99.90;;;;;;4977184;28;20127;-74
2022/08/10 00:28:02;;;;;;;6.68;2.10;;;27.60;99.90;;;;;;4992947;28;20077;-73
2022/08/10 00:30:28;;;;;;;5.25;1.92;;;27.40;99.90;;;;;;4984250;28;20026;-74
2022/08/10 00:32:54;;;;;;;5.75;2.10;;;27.50;99.90;;;;;;4997901;28;20460;-70
2022/08/10 00:35:20;;;;;;;4.28;2.13;;;27.40;99.90;;;;;;4979192;28;20041;-71
2022/08/10 00:37:46;;;;;;;6.70;1.80;;;27.30;99.90;;;;;;4998888;28;20448;-70
2022/08/10 00:40:12;;;;;;;3.90;1.70;;;27.30;99.90;;;;;;4975621;28;20038;-72
2022/08/10 00:42:38;;;;;;;3.45;2.20;;;27.30;99.90;;;;;;4996151;28;20072;-72
2022/08/10 00:45:04;;;;;;;3.80;2.17;;;27.30;99.90;;;;;;4994363;28;20037;-72
2022/08/10 00:47:30;;;;;;;4.40;1.90;;;27.30;99.90;;;;;;4993671;28;20124;-72
2022/08/10 00:49:56;;;;;;;3.50;1.88;;;27.20;99.90;;;;;;4980405;28;20493;-73
2022/08/10 00:52:24;;;;;;;3.90;2.08;;;27.20;99.90;;;;;;4994391;28;20042;-73
2022/08/10 00:54:50;;;;;;;4.53;1.95;;;27.20;99.90;;;;;;4981819;28;20347;-72
2022/08/10 00:57:16;;;;;;;3.83;1.80;;;27.10;99.90;;;;;;4996484;28;20494;-72
2022/08/10 00:59:43;;;;;;;7.53;2.55;;;27.10;99.90;;;;;;4999170;28;20049;-71
2022/08/10 01:02:08;;;;;;;3.55;2.08;;;27.10;99.90;;;;;;4980577;28;20042;-71
2022/08/10 01:04:34;;;;;;;3.53;2.30;;;27.10;99.90;;;;;;4999866;28;20184;-72
2022/08/10 01:07:38;;;;;;;3.88;2.22;;;27.10;99.90;;;;;;4997076;28;20037;-72
2022/08/10 01:10:25;;;;;;;5.32;2.08;;;27.10;99.90;;;;;;4994266;28;20042;-72
2022/08/10 01:12:54;;;;;;;6.68;2.13;;;27.10;99.90;;;;;;4994165;28;20662;-72
2022/08/10 01:15:26;;;;;;;4.28;1.88;;;27.00;99.90;;;;;;4994204;28;20042;-72
2022/08/10 01:18:01;;;;;;;3.28;1.98;;;27.00;99.90;;;;;;4982090;28;20046;-72
2022/08/10 01:21:08;;;;;;;5.78;1.92;;;27.00;99.90;;;;;;4995756;28;20045;-72
2022/08/10 01:24:04;;;;;;;3.75;1.80;;;27.10;99.90;;;;;;4997302;28;20049;-73
2022/08/10 01:26:48;;;;;;;5.50;1.90;;;27.10;99.90;;;;;;4997419;28;20057;-72
2022/08/10 01:29:48;;;;;;;3.17;1.83;;;27.10;99.90;;;;;;4998450;28;20533;-72
2022/08/10 01:32:22;;;;;;;2.28;1.67;;;27.20;99.90;;;;;;4980145;28;20049;-72
2022/08/10 01:35:00;;;;;;;1.75;1.30;;;27.20;99.80;;;;;;4979500;28;20034;-72
2022/08/10 01:37:33;;;;;;;4.05;1.80;;;27.20;99.30;;;;;;4986689;28;20038;-72
2022/08/10 01:40:03;;;;;;;2.67;1.70;;;27.20;99.90;;;;;;4978833;28;20092;-71
2022/08/10 01:42:32;;;;;;;3.90;1.60;;;27.20;99.60;;;;;;4977304;28;20129;-71
2022/08/10 01:45:02;;;;;;;2.38;1.50;;;27.10;99.90;;;;;;4999171;28;20482;-72
2022/08/10 01:50:34;;;;;;;3.90;2.15;;;27.20;99.30;;;;;;4998307;28;20087;-72
2022/08/10 01:53:08;;;;;;;3.22;1.85;;;27.10;99.20;;;;;;4977893;28;20069;-72
2022/08/10 01:55:37;;;;;;;2.60;1.60;;;27.30;98.00;;;;;;4971055;28;20054;-74
2022/08/10 01:58:06;;;;;;;3.00;1.52;;;27.20;98.50;;;;;;4998535;28;20110;-74
2022/08/10 02:00:36;;;;;;;3.03;1.73;;;27.20;98.80;;;;;;4981212;28;20126;-74
2022/08/10 02:03:05;;;;;;;3.55;1.60;;;27.40;97.70;;;;;;5000436;28;20208;-74
2022/08/10 02:05:33;;;;;;;7.57;1.70;;;27.20;98.40;;;;;;4980922;28;20045;-73
2022/08/10 02:08:01;;;;;;;3.63;1.80;;;27.20;99.20;;;;;;4979898;28;20045;-74
2022/08/10 02:10:29;;;;;;;3.85;1.77;;;27.10;99.10;;;;;;4998590;28;20045;-73
2022/08/10 02:12:57;;;;;;;2.58;1.70;;;27.10;99.00;;;;;;4995417;28;20048;-74
2022/08/10 02:15:27;;;;;;;3.92;1.73;;;27.00;99.00;;;;;;4997172;28;20044;-74
2022/08/10 02:17:58;;;;;;;2.83;1.70;;;27.10;98.40;;;;;;4980447;28;20049;-74
2022/08/10 02:20:26;;;;;;;3.67;2.00;;;27.00;99.10;;;;;;4995577;28;20503;-74
2022/08/10 02:22:56;;;;;;;2.00;1.60;;;27.00;99.40;;;;;;4996219;28;20046;-73
2022/08/10 02:25:24;;;;;;;3.58;1.60;;;27.20;98.30;;;;;;4969254;28;20034;-73
2022/08/10 02:27:52;;;;;;;2.67;1.55;;;27.20;98.40;;;;;;4978655;28;20037;-73
2022/08/10 02:30:18;;;;;;;2.30;1.70;;;27.10;98.50;;;;;;4995166;28;20058;-73
2022/08/10 02:32:46;;;;;;;4.22;1.77;;;27.10;98.30;;;;;;4980890;28;20145;-73
2022/08/10 02:35:14;;;;;;;2.55;1.70;;;27.40;97.40;;;;;;4997825;28;20112;-74
2022/08/10 02:37:44;;;;;;;2.22;1.52;;;27.40;97.60;;;;;;4995738;28;20123;-74
2022/08/10 02:40:11;;;;;;;2.35;1.50;;;27.30;97.40;;;;;;4995052;28;20524;-74
2022/08/10 02:42:56;;;;;;;3.72;1.50;;;27.40;97.20;;;;;;4979372;28;20049;-73
2022/08/10 02:45:38;;;;;;;3.08;1.77;;;27.30;97.80;;;;;;4993065;28;20041;-73
2022/08/10 02:48:48;;;;;;;2.05;1.60;;;27.20;97.90;;;;;;4967778;28;20646;-74
2022/08/10 02:51:19;;;;;;;3.33;1.70;;;27.10;98.20;;;;;;4993613;28;20044;-73
2022/08/10 02:53:51;;;;;;;2.20;1.67;;;27.10;98.40;;;;;;4982381;28;20065;-73
2022/08/10 02:56:27;;;;;;;4.43;1.80;;;27.00;98.70;;;;;;4981130;28;20044;-73
2022/08/10 02:59:11;;;;;;;4.43;1.75;;;27.00;99.10;;;;;;4997285;28;20042;-73
2022/08/10 03:01:42;;;;;;;6.75;2.15;;;26.90;99.50;;;;;;4977693;28;20385;-74
2022/08/10 03:04:18;;;;;;;3.33;1.70;;;26.70;99.80;;;;;;4983740;28;20041;-73
2022/08/10 03:06:53;;;;;;;4.78;1.80;;;26.60;99.80;;;;;;4992313;28;20519;-72
2022/08/10 03:09:20;;;;;;;2.88;1.48;;;26.60;99.90;;;;;;4968100;28;20076;-73
2022/08/10 03:11:48;;;;;;;3.05;1.85;;;26.50;99.90;;;;;;4974784;28;20634;-73
2022/08/10 03:14:16;;;;;;;4.53;1.70;;;26.50;99.90;;;;;;4993949;28;20108;-74
2022/08/10 03:16:42;;;;;;;3.22;1.65;;;26.50;99.90;;;;;;4992876;28;20052;-72
2022/08/10 03:19:10;;;;;;;5.63;1.63;;;26.50;99.90;;;;;;4995013;28;20045;-73
2022/08/10 03:21:37;;;;;;;2.60;1.70;;;26.50;99.90;;;;;;4996652;28;20026;-73
2022/08/10 03:24:05;;;;;;;4.28;1.65;;;26.50;99.90;;;;;;4992723;28;20042;-73
2022/08/10 03:26:31;;;;;;;2.83;1.80;;;26.40;99.90;;;;;;5005613;28;20038;-73
2022/08/10 03:28:59;;;;;;;4.03;1.70;;;26.40;99.90;;;;;;4983984;28;20034;-74
2022/08/10 03:31:28;;;;;;;4.35;1.80;;;26.40;99.90;;;;;;5000748;28;20034;-73
2022/08/10 03:33:54;;;;;;;4.70;1.70;;;26.30;99.90;;;;;;5001642;28;20828;-73
2022/08/10 03:36:21;;;;;;;5.25;2.00;;;26.30;99.90;;;;;;4982941;28;20453;-73
2022/08/10 03:38:50;;;;;;;3.47;1.70;;;26.40;99.90;;;;;;4985338;28;20151;-74
2022/08/10 03:41:21;;;;;;;3.45;2.10;;;26.20;99.90;;;;;;4997161;28;20053;-73
2022/08/10 03:43:50;;;;;;;4.97;2.20;;;26.20;99.90;;;;;;4999920;28;20440;-73
2022/08/10 03:46:22;;;;;;;5.53;2.03;;;26.10;99.90;;;;;;4999893;28;20498;-74
2022/08/10 03:48:51;;;;;;;4.28;2.20;;;26.00;99.90;;;;;;4983452;28;20042;-73
2022/08/10 03:51:18;;;;;;;4.28;1.90;;;26.00;99.90;;;;;;4981883;28;20808;-73
2022/08/10 03:53:46;;;;;;;11.25;2.15;;;26.00;99.90;;;;;;5001741;28;20456;-73
2022/08/10 03:56:12;;;;;;;3.45;1.90;;;26.00;99.90;;;;;;4999985;28;20025;-74
2022/08/10 03:58:38;;;;;;;3.20;1.90;;;26.00;99.90;;;;;;5002038;28;20492;-73
2022/08/10 04:01:06;;;;;;;5.22;1.92;;;26.00;99.90;;;;;;5002430;28;20455;-73
2022/08/10 04:03:32;;;;;;;6.57;2.10;;;26.00;99.90;;;;;;4998391;28;20112;-76
2022/08/10 04:05:58;;;;;;;2.20;1.70;;;25.90;99.90;;;;;;4996073;28;20061;-73
2022/08/10 04:08:25;;;;;;;2.63;1.80;;;25.90;99.90;;;;;;4976535;28;20991;-75
2022/08/10 04:10:51;;;;;;;2.47;1.92;;;25.90;99.90;;;;;;5000940;28;20034;-73
2022/08/10 04:13:16;;;;;;;3.13;1.70;;;25.90;99.90;;;;;;4998777;28;20435;-73
2022/08/10 04:15:42;;;;;;;3.67;1.50;;;25.90;99.90;;;;;;5001821;28;20637;-74
2022/08/10 04:18:08;;;;;;;4.40;2.03;;;25.80;99.90;;;;;;4984473;28;20635;-74
2022/08/10 04:20:45;;;;;;;6.60;2.00;;;25.80;99.90;;;;;;5001628;28;20037;-74
2022/08/10 04:23:17;;;;;;;2.72;1.80;;;25.80;99.90;;;;;;4976267;28;20123;-74
2022/08/10 04:25:43;;;;;;;3.70;1.90;;;25.90;99.90;;;;;;4997707;28;20549;-73
2022/08/10 04:28:10;;;;;;;2.70;1.90;;;25.80;99.90;;;;;;4979145;28;20034;-74
2022/08/10 04:30:37;;;;;;;4.70;1.80;;;25.70;99.90;;;;;;4993141;28;20381;-74
2022/08/10 04:33:05;;;;;;;4.50;1.80;;;25.70;99.90;;;;;;4998925;28;20493;-74
2022/08/10 04:35:32;;;;;;;4.65;2.20;;;25.80;99.90;;;;;;4992976;28;20481;-74
2022/08/10 04:38:02;;;;;;;4.13;1.90;;;25.70;99.90;;;;;;4976922;28;20528;-74
2022/08/10 04:40:29;;;;;;;8.25;2.17;;;25.70;99.90;;;;;;4993458;28;20561;-73
2022/08/10 04:42:56;;;;;;;4.15;2.00;;;25.70;99.90;;;;;;4978582;28;20042;-72
2022/08/10 04:45:22;;;;;;;4.40;1.88;;;25.70;99.90;;;;;;5000020;28;20052;-73
2022/08/10 04:47:48;;;;;;;4.18;1.85;;;25.60;99.90;;;;;;4979908;28;20713;-74
2022/08/10 04:50:13;;;;;;;3.78;2.10;;;25.60;99.90;;;;;;4999167;28;20034;-74
2022/08/10 04:52:39;;;;;;;3.30;1.83;;;25.70;99.90;;;;;;4998550;28;20062;-73
2022/08/10 04:55:05;;;;;;;2.97;2.10;;;25.70;99.90;;;;;;4996049;28;20034;-75
2022/08/10 04:57:31;;;;;;;2.95;1.73;;;25.60;99.90;;;;;;4976627;28;20038;-74
2022/08/10 04:59:57;;;;;;;4.22;2.00;;;25.60;99.90;;;;;;4980777;28;20074;-73
2022/08/10 05:02:24;;;;;;;7.03;2.08;;;25.60;99.90;;;;;;5002991;28;20041;-74
2022/08/10 05:04:50;;;;;;;2.58;1.88;;;25.80;99.90;;;;;;4997963;28;20045;-73
2022/08/10 05:07:16;;;;;;;5.65;2.13;;;25.90;99.70;;;;;;4980565;28;20841;-74
2022/08/10 05:09:43;;;;;;;2.95;1.83;;;25.90;99.70;;;;;;5000500;28;20555;-74
2022/08/10 05:12:09;;;;;;;3.17;2.10;;;25.90;99.80;;;;;;4981775;28;20022;-74
2022/08/10 05:14:35;;;;;;;4.95;2.85;;;26.00;99.90;;;;;;4989614;28;20207;-74
2022/08/10 05:17:01;;;;;;;4.82;2.10;;;26.00;99.90;;;;;;4982045;28;20176;-73
2022/08/10 05:19:27;;;;;;;5.22;2.25;;;25.90;99.90;;;;;;4998362;28;20597;-74
2022/08/10 05:21:53;;;;;;;3.03;1.90;;;25.90;99.90;;;;;;4982763;28;20374;-74
2022/08/10 05:24:18;;;;;;;6.35;2.10;;;25.90;99.90;;;;;;5001027;28;20556;-75
2022/08/10 05:26:44;;;;;;;6.07;2.03;;;25.90;99.90;;;;;;4982291;28;20038;-74
2022/08/10 05:29:10;;;;;;;3.83;2.03;;;25.80;99.90;;;;;;4996205;28;20038;-73
2022/08/10 05:31:36;;;;;;;3.65;2.00;;;25.80;99.90;;;;;;4980691;28;20564;-73
2022/08/10 05:34:02;;;;;;;3.38;2.00;;;25.90;99.90;;;;;;4998830;28;20145;-73
2022/08/10 05:36:29;;;;;;;6.93;2.03;;;25.90;99.90;;;;;;4999681;28;20030;-73
2022/08/10 05:38:55;;;;;;;4.22;1.73;;;25.90;99.80;;;;;;4999740;28;20315;-73
2022/08/10 05:41:21;;;;;;;2.60;1.90;;;26.00;99.70;;;;;;4978664;28;20026;-72
2022/08/10 05:43:48;;;;;;;3.97;2.00;;;26.00;99.60;;;;;;4997056;28;20053;-72
2022/08/10 05:46:14;;;;;;;3.35;1.90;;;26.10;99.70;;;;;;4996881;28;20069;-73
2022/08/10 05:48:40;;;;;;;6.50;2.40;;;26.10;99.60;;;;;;4996350;28;20080;-73
2022/08/10 05:51:07;;;;;;;4.72;2.40;;;26.20;99.60;;;;;;4996276;28;20464;-74
2022/08/10 05:53:35;;;;;;;5.00;2.10;;;26.20;99.60;;;;;;4980511;28;20902;-74
2022/08/10 05:56:02;;;;;;;2.38;1.63;;;26.40;99.00;;;;;;4996502;28;20125;-74
2022/08/10 05:58:28;;;;;;;3.95;2.05;;;26.50;99.20;;;;;;4995232;28;20052;-73
2022/08/10 06:00:56;;;;;;;4.25;2.00;;;26.50;99.30;;;;;;4998440;28;20142;-73
2022/08/10 06:03:31;;;;;;;7.00;2.35;;;26.60;99.50;;;;;;4977732;28;20076;-73
2022/08/10 06:05:59;;;;;;;5.60;2.20;;;26.60;99.50;;;;;;4996235;28;20487;-74
2022/08/10 06:08:30;;;;;;;6.32;2.20;;;26.60;99.60;;;;;;4979553;28;20061;-74
2022/08/10 06:10:58;;;;;;;7.28;2.35;;;26.70;99.60;;;;;;4996992;28;20495;-73
2022/08/10 06:16:13;;;;;;;7.03;2.35;;;26.80;99.50;;;;;;4994543;28;20044;-73
2022/08/10 06:18:40;;;;;;;5.32;2.20;;;27.00;99.40;;;;;;4981840;28;20042;-73
2022/08/10 06:21:08;;;;;;;5.70;2.40;;;27.00;99.20;;;;;;4976317;28;20049;-74
2022/08/10 06:23:35;;;;;;;10.45;2.53;;;27.10;99.20;;;;;;4995568;28;20603;-73
2022/08/10 06:26:02;;;;;;;4.20;2.20;;;27.20;99.10;;;;;;4975513;28;20104;-74
2022/08/10 06:28:31;;;;;;;4.40;2.20;;;27.20;98.90;;;;;;4974884;28;20034;-75
2022/08/10 06:31:00;;;;;;;5.20;2.03;;;27.30;98.90;;;;;;4993220;28;20029;-75
2022/08/10 06:33:30;;;;;;;4.57;2.20;;;27.40;98.90;;;;;;4994344;28;20048;-74
2022/08/10 06:35:56;;;;;;;7.28;2.20;;;27.40;98.70;;;;;;4995625;28;20489;-74
2022/08/10 06:38:25;;;;;;;5.85;2.30;;;27.50;98.50;;;;;;4996146;28;20042;-73
2022/08/10 06:40:55;;;;;;;5.43;2.45;;;27.60;98.40;;;;;;4996116;28;20064;-73
2022/08/10 06:43:23;;;;;;;7.28;2.60;;;27.70;98.30;;;;;;4976466;28;20037;-74
2022/08/10 06:45:53;;;;;;;3.60;2.17;;;27.70;98.10;;;;;;4999550;28;20041;-73
2022/08/10 06:48:24;;;;;;;8.75;2.63;;;27.80;98.10;;;;;;4996595;28;20040;-71
2022/08/10 06:50:56;;;;;;;7.50;2.80;;;27.80;98.00;;;;;;4997508;28;20038;-70
2022/08/10 06:53:30;;;;;;;6.72;2.63;;;27.90;97.90;;;;;;4993356;28;20252;-70
2022/08/10 06:56:05;;;;;;;3.25;1.98;;;27.90;97.30;;;;;;4996484;28;20827;-70
2022/08/10 06:58:44;;;;;;;5.95;2.35;;;28.20;96.80;;;;;;4996547;28;20042;-70
2022/08/10 07:01:15;;;;;;;5.93;2.30;;;28.30;96.60;;;;;;4981046;28;20038;-71
2022/08/10 07:04:02;;;;;;;5.05;2.25;;;28.50;96.50;;;;;;4978869;28;20042;-71
2022/08/10 07:06:29;;;;;;;5.15;2.15;;;28.50;96.20;;;;;;4969773;28;20502;-71
2022/08/10 07:08:59;;;;;;;3.85;2.00;;;28.70;95.90;;;;;;4978009;28;20062;-70
2022/08/10 07:11:27;;;;;;;8.27;2.40;;;28.80;95.70;;;;;;4995770;28;20109;-70
2022/08/10 07:13:55;;;;;;;4.95;2.10;;;29.00;95.60;;;;;;4960221;28;20046;-71
2022/08/10 07:16:27;;;;;;;5.38;2.40;;;29.00;95.60;;;;;;4992639;28;20440;-70
2022/08/10 07:18:56;;;;;;;12.93;2.60;;;29.10;95.60;;;;;;4977391;28;20048;-71
2022/08/10 07:21:25;;;;;;;5.57;2.25;;;29.10;95.50;;;;;;4978504;28;20037;-71
2022/08/10 07:23:55;;;;;;;10.98;2.10;;;29.10;95.60;;;;;;4979681;28;20053;-71
2022/08/10 07:26:23;;;;;;;5.47;2.40;;;29.10;95.50;;;;;;4974757;28;20061;-71
2022/08/10 07:28:50;;;;;;;7.10;2.00;;;29.20;95.50;;;;;;4990543;28;20761;-70
2022/08/10 07:31:22;;;;;;;5.78;2.40;;;29.20;95.20;;;;;;4994755;28;20030;-69
2022/08/10 07:33:48;;;;;;;;;;;29.30;95.40;;;;;;4979695;28;20089;-70
2022/08/10 07:36:17;;;;;;;6.30;2.45;;;29.40;95.20;;;;;;4994980;28;19918;-70
2022/08/10 07:38:43;;;;;;;6.18;2.20;;;29.50;95.20;;;;;;4981403;28;20041;-70
2022/08/10 07:41:10;;;;;;;8.02;2.28;;;29.50;95.10;;;;;;4979307;28;20897;-69
2022/08/10 07:43:39;;;;;;;7.32;2.30;;;29.50;95.10;;;;;;4997562;28;20776;-70
2022/08/10 07:46:11;;;;;;;4.93;1.95;;;29.70;94.50;;;;;;4978697;28;20704;-70
2022/08/10 07:48:53;;;;;;;;;;;29.70;94.00;;;;;;4997703;28;20029;-70
2022/08/10 07:51:20;;;;;;;;;;;29.80;93.90;;;;;;4979992;28;19913;-70
2022/08/10 07:53:50;;;;;;;10.85;2.20;;;29.90;93.90;;;;;;4997315;28;19913;-71
2022/08/10 07:56:20;;;;;;;10.38;2.63;;;30.00;93.80;;;;;;4979484;28;20037;-70
2022/08/10 07:58:49;;;;;;;5.07;2.13;;;30.00;93.70;;;;;;4997411;28;20049;-71
2022/08/10 08:01:16;;;;;;;5.75;2.22;;;30.10;93.50;;;;;;4978544;28;20121;-70
2022/08/10 08:03:44;;;;;;;3.25;1.80;;;30.20;93.40;;;;;;4981753;28;20651;-70
2022/08/10 08:06:11;;;;;;;6.22;2.30;;;30.10;93.00;;;;;;4991247;28;20477;-71
2022/08/10 08:08:39;;;;;;;6.53;1.98;;;30.20;93.20;;;;;;4977948;28;20027;-71
2022/08/10 08:11:07;;;;;;;7.53;2.40;;;30.40;93.10;;;;;;4981893;28;20061;-70
2022/08/10 08:13:37;;;;;;;6.43;3.00;;;30.40;92.90;;;;;;4982248;28;20057;-70
2022/08/10 08:16:05;;;;;;;4.93;1.88;;;30.40;92.70;;;;;;4997482;28;20073;-70
2022/08/10 08:18:34;;;;;;;4.07;1.95;;;30.50;92.50;;;;;;5002310;28;20144;-71
2022/08/10 08:21:01;;;;;;;8.10;2.10;;;30.50;92.20;;;;;;5002653;28;20038;-70
2022/08/10 08:23:29;;;;;;;4.97;2.20;;;30.60;92.10;;;;;;4989793;28;20064;-71
2022/08/10 08:25:55;;;;;;;4.78;1.85;;;30.70;91.70;;;;;;4999658;28;20083;-71
2022/08/10 08:28:23;;;;;;;4.57;1.92;;;30.90;91.60;;;;;;4999069;28;20038;-70
2022/08/10 08:30:49;;;;;;;3.08;2.03;;;30.90;91.10;;;;;;4999224;28;20039;-71
2022/08/10 08:33:18;;;;;;;4.38;1.90;;;30.90;91.00;;;;;;4998661;28;20064;-70
2022/08/10 08:35:44;;;;;;;4.13;2.63;;;31.10;90.70;;;;;;4999655;28;20100;-70
2022/08/10 08:38:12;;;;;;;5.10;2.00;;;31.20;90.50;;;;;;5000680;28;20045;-70
2022/08/10 08:40:43;;;;;;;7.22;2.10;;;31.50;90.60;;;;;;4982538;28;20038;-70
2022/08/10 08:43:21;;;;;;;4.28;1.85;;;33.00;89.00;;;;;;4979451;28;20042;-70
2022/08/10 08:46:16;;;;;;;7.30;2.33;;;33.60;86.80;;;;;;4958526;28;20029;-70
2022/08/10 08:49:09;;;;;;;4.82;2.10;;;33.20;86.80;;;;;;4999889;28;20049;-70
2022/08/10 08:52:03;;;;;;;6.75;2.10;;;33.40;85.20;;;;;;4999152;28;20038;-70
2022/08/10 08:55:01;;;;;;;6.63;2.08;;;34.70;83.80;;;;;;4998458;28;20056;-70
2022/08/10 08:58:25;;;;;;;6.95;2.00;;;35.10;82.60;;;;;;4983615;28;20042;-69
2022/08/10 09:01:18;;;;;;;5.78;2.05;;;35.80;81.60;;;;;;4938614;28;20602;-70
2022/08/10 09:04:05;;;;;;;10.35;2.22;;;35.90;81.10;;;;;;4938639;28;20743;-70
2022/08/10 09:07:02;;;;;;;3.90;1.75;;;35.80;81.40;;;;;;4967151;28;20125;-70
2022/08/10 09:09:54;;;;;;;6.25;2.22;;;35.90;77.70;;;;;;4997620;28;20401;-69
2022/08/10 09:13:02;;;;;;;10.32;2.47;;;36.50;79.60;;;;;;4981440;28;20125;-70
2022/08/10 09:15:52;;;;;;;4.28;2.22;;;36.70;79.60;;;;;;4998030;28;20841;-70
2022/08/10 09:18:24;;;;;;;9.23;2.03;;;35.60;80.90;;;;;;4997390;28;20053;-70
2022/08/10 09:21:11;;;;;;;12.55;3.00;;;36.00;80.60;;;;;;4983300;28;20044;-71
2022/08/10 09:23:55;;;;;;;8.50;2.60;;;35.60;80.90;;;;;;4979955;28;20065;-71
2022/08/10 09:26:44;;;;;;;8.43;2.13;;;36.40;81.20;;;;;;4985401;28;20034;-70
2022/08/10 09:29:16;;;;;;;11.95;2.47;;;35.20;80.20;;;;;;4996802;28;20132;-70
2022/08/10 09:31:49;;;;;;;12.60;2.38;;;35.10;80.70;;;;;;4982475;28;20061;-71
2022/08/10 09:35:01;;;;;;;5.32;2.50;;;35.80;80.80;;;;;;5000900;28;20106;-71
2022/08/10 09:37:46;;;;;;;;;;;36.30;79.70;;;;;;4998166;28;20037;-71
2022/08/10 09:40:30;;;;;;;7.25;2.40;;;37.10;78.40;;;;;;4980271;28;20365;-70
2022/08/10 09:43:05;;;;;;;8.25;2.70;;;38.30;77.70;;;;;;4984144;28;20041;-70
2022/08/10 09:46:01;;;;;;;8.90;2.60;;;38.00;78.70;;;;;;5000063;28;20434;-70
2022/08/10 09:48:57;;;;;;;9.77;2.90;;;38.90;81.60;;;;;;4995926;28;20044;-70
2022/08/10 09:51:34;;;;;;;10.77;3.15;;;39.40;83.10;;;;;;4996951;28;20045;-71
2022/08/10 09:54:04;;;;;;;11.63;2.88;;;39.40;85.10;;;;;;5000848;28;20489;-70
2022/08/10 09:56:55;;;;;;;11.63;3.08;;;39.30;85.10;;;;;;4994476;28;20149;-71
2022/08/10 09:59:40;;;;;;;13.25;2.70;;;39.70;84.00;;;;;;4998498;28;20512;-71
2022/08/10 10:02:05;;;;;;;12.07;2.92;;;40.40;83.00;;;;;;5000201;28;20840;-71
2022/08/10 10:04:41;;;;;;;6.53;2.88;;;40.70;81.60;;;;;;5004233;28;20030;-72
2022/08/10 10:07:13;;;;;;;8.60;2.78;;;40.90;80.50;;;;;;4975904;28;20045;-71
2022/08/10 10:09:59;;;;;;;12.15;3.30;;;40.70;80.70;;;;;;4998209;28;20145;-71
2022/08/10 10:12:55;;;;;;;10.95;2.97;;;40.30;83.80;;;;;;4993127;28;20046;-70
2022/08/10 10:15:38;;;;;;;9.20;3.03;;;40.30;85.00;;;;;;4978310;28;20903;-71
2022/08/10 10:18:29;;;;;;;11.63;3.20;;;39.80;86.00;;;;;;4993443;28;20056;-70
2022/08/10 10:21:45;;;;;;;9.80;2.50;;;39.50;87.00;;;;;;4981584;28;20967;-70
2022/08/10 10:24:44;;;;;;;11.63;2.97;;;39.60;87.00;;;;;;4954461;28;20145;-70
2022/08/10 10:27:36;;;;;;;7.65;2.55;;;39.70;88.10;;;;;;4954153;28;20038;-71
2022/08/10 10:30:11;;;;;;;11.85;2.90;;;39.80;89.40;;;;;;4989958;28;20038;-71
2022/08/10 10:33:08;;;;;;;7.28;2.65;;;39.70;90.20;;;;;;4996471;28;20038;-71
2022/08/10 10:35:53;;;;;;;9.43;2.33;;;39.40;90.50;;;;;;4994451;28;20045;-71
2022/08/10 10:38:26;;;;;;;5.75;2.10;;;37.90;90.50;;;;;;4980135;28;20049;-70
2022/08/10 10:41:21;;;;;;;8.70;2.20;;;36.50;90.80;;;;;;4997438;28;20053;-70
2022/08/10 10:44:05;;;;;;;5.32;2.13;;;36.30;90.60;;;;;;4997528;28;20519;-70
2022/08/10 10:46:55;;;;;;;5.07;2.20;;;36.10;91.90;;;;;;4996062;28;20787;-70
2022/08/10 10:49:46;;;;;;;9.07;2.60;;;35.80;91.80;;;;;;4978341;28;20548;-70
2022/08/10 10:52:36;;;;;;;5.65;2.25;;;35.20;92.20;;;;;;4995569;28;20042;-70
2022/08/10 10:55:16;;;;;;;7.13;2.22;;;35.10;92.20;;;;;;4977837;28;20374;-70
2022/08/10 10:58:04;;;;;;;4.88;2.50;;;34.80;92.20;;;;;;4981900;28;20053;-70
2022/08/10 11:01:08;;;;;;;7.00;2.15;;;34.70;92.50;;;;;;4990821;28;20044;-69
2022/08/10 11:03:58;;;;;;;6.20;2.00;;;34.70;91.60;;;;;;4995171;28;20065;-70
2022/08/10 11:06:44;;;;;;;4.75;2.22;;;35.50;90.80;;;;;;4966373;28;20938;-71
2022/08/10 11:09:19;;;;;;;4.18;1.88;;;34.80;91.40;;;;;;4975010;28;20034;-70
2022/08/10 11:11:49;;;;;;;7.57;2.40;;;35.40;90.00;;;;;;4980007;28;20130;-70
2022/08/10 11:14:43;;;;;;;8.73;2.22;;;35.30;87.10;;;;;;4995928;28;20045;-71
2022/08/10 11:17:30;;;;;;;4.93;1.88;;;35.40;87.60;;;;;;4994950;28;20156;-71
2022/08/10 11:20:14;;;;;;;5.65;1.67;;;35.60;86.80;;;;;;4976793;28;20933;-71
2022/08/10 11:23:19;;;;;;;4.35;1.90;;;35.30;85.40;;;;;;4992195;28;20060;-71
2022/08/10 11:26:46;;;;;;;4.22;1.85;;;35.80;88.00;;;;;;4993099;28;20046;-71
2022/08/10 11:29:36;;;;;;;3.50;1.70;;;34.80;85.00;;;;;;4906987;29;20082;-70
2022/08/10 11:32:21;;;;;;;5.45;2.10;;;33.90;90.40;;;;;;4929604;29;20616;-71
2022/08/10 11:34:54;;;;;;;4.97;2.20;;;34.70;90.00;;;;;;4979391;28;20034;-70
2022/08/10 11:37:48;;;;;;;5.75;2.33;;;34.50;90.70;;;;;;4979115;28;20833;-71
2022/08/10 11:40:32;;;;;;;4.60;2.00;;;34.80;90.90;;;;;;4994193;28;20156;-70
2022/08/10 11:43:13;;;;;;;6.93;2.05;;;35.10;90.60;;;;;;4996670;28;20459;-70
2022/08/10 11:45:43;;;;;;;7.45;2.10;;;35.40;90.50;;;;;;4977166;28;20492;-70
2022/08/10 11:48:15;;;;;;;5.55;1.83;;;35.80;89.50;;;;;;4999714;28;20084;-72
2022/08/10 11:50:51;;;;;;;4.15;1.92;;;35.50;88.00;;;;;;5002196;28;20069;-71
2022/08/10 11:53:35;;;;;;;4.35;2.17;;;35.70;90.10;;;;;;4959538;28;20571;-71
2022/08/10 11:56:02;;;;;;;7.03;2.03;;;35.80;90.10;;;;;;4983231;28;20932;-71
2022/08/10 12:01:23;;;;;;;4.28;1.73;;;36.20;89.20;;;;;;4996548;28;20044;-71
2022/08/10 12:03:50;;;;;;;6.18;1.85;;;35.60;88.10;;;;;;4997860;28;20053;-71
2022/08/10 12:06:20;;;;;;;2.50;1.75;;;35.20;90.30;;;;;;4997361;28;20033;-70
2022/08/10 12:08:47;;;;;;;3.85;1.73;;;34.20;92.10;;;;;;5000731;28;20033;-71
2022/08/10 12:11:25;;;;;;;4.00;2.10;;;34.30;91.10;;;;;;4999980;28;20049;-71
2022/08/10 12:14:06;;;;;;;4.57;2.10;;;33.90;90.50;;;;;;5000035;28;20038;-71
2022/08/10 12:16:36;;;;;;;;;;;35.30;91.60;;;;;;5000501;28;20033;-71
2022/08/10 12:19:20;;;;;;;4.72;2.17;;;34.40;92.50;;;;;;4996827;28;20047;-70
2022/08/10 12:22:09;;;;;;;9.15;2.20;;;35.60;92.40;;;;;;4998546;28;20068;-70
2022/08/10 12:24:50;;;;;;;3.90;1.95;;;36.00;91.60;;;;;;4978415;28;20049;-71
2022/08/10 12:27:28;;;;;;;6.20;2.05;;;36.00;91.30;;;;;;4990584;28;20150;-71
2022/08/10 12:30:14;;;;;;;4.88;1.92;;;35.40;92.90;;;;;;4997240;28;20414;-70
2022/08/10 12:33:01;;;;;;;7.43;1.92;;;33.50;94.80;;;;;;4974969;28;20128;-71
2022/08/10 12:35:39;;;;;;;4.80;2.45;;;34.20;94.70;;;;;;4980647;28;20041;-70
2022/08/10 12:38:33;;;;;;;6.53;1.90;;;34.00;95.70;;;;;;4981706;28;20095;-71
2022/08/10 12:41:02;;;;;;;6.10;2.08;;;34.10;95.40;;;;;;5000031;28;20132;-72
2022/08/10 12:43:57;;;;;;;4.72;2.08;;;35.10;94.80;;;;;;4998078;28;20104;-71
2022/08/10 12:46:51;;;;;;;5.40;2.15;;;35.30;93.80;;;;;;4980355;28;20034;-70
2022/08/10 12:49:28;;;;;;;6.75;2.00;;;35.60;93.80;;;;;;4995028;28;20068;-71
2022/08/10 12:52:28;;;;;;;3.78;2.08;;;35.40;93.70;;;;;;4996454;28;20697;-70
2022/08/10 12:54:57;;;;;;;6.13;2.25;;;35.60;93.60;;;;;;4998361;28;20073;-70
2022/08/10 12:57:24;;;;;;;8.70;2.08;;;35.10;93.80;;;;;;4997838;28;20118;-70
2022/08/10 12:59:55;;;;;;;7.18;2.22;;;34.10;94.30;;;;;;5002584;28;20092;-71
2022/08/10 13:02:33;;;;;;;4.57;2.20;;;35.00;93.50;;;;;;4993487;28;20881;-70
2022/08/10 13:05:03;;;;;;;4.25;1.77;;;35.50;92.40;;;;;;4995821;28;20436;-70
2022/08/10 13:07:38;;;;;;;4.82;1.75;;;35.60;91.90;;;;;;4977091;28;20053;-71
2022/08/10 13:10:10;;;;;;;2.30;1.60;;;35.30;91.20;;;;;;4979790;28;20065;-71
2022/08/10 13:12:41;;;;;;;3.22;1.83;;;34.50;91.90;;;;;;4979721;28;20054;-70
2022/08/10 13:15:17;;;;;;;6.47;2.30;;;34.60;91.60;;;;;;4995497;28;20753;-71
2022/08/10 13:17:49;;;;;;;10.40;2.63;;;35.10;91.30;;;;;;4994000;28;20042;-70
2022/08/10 13:20:37;;;;;;;6.25;1.85;;;35.20;91.30;;;;;;4995167;28;20046;-71
2022/08/10 13:23:11;;;;;;;4.78;2.05;;;35.00;90.80;;;;;;4996273;28;20085;-70
2022/08/10 13:25:39;;;;;;;3.53;1.52;;;35.20;90.40;;;;;;4974703;28;20034;-71
2022/08/10 13:28:09;;;;;;;3.60;1.90;;;36.30;88.30;;;;;;4981339;28;20690;-71
2022/08/10 13:30:39;;;;;;;6.23;2.20;;;35.70;88.90;;;;;;4996552;28;20045;-70
2022/08/10 13:33:08;;;;;;;2.80;1.60;;;35.30;90.30;;;;;;4995119;28;20313;-70